Time;durP1;ratioP1;P1;durP2;ratioP2;P2;SDS_P1;SDS_P2;PMS_P1;PMS_P2;Temp;Humidity;BMP_temperature;BMP_pressure;BME280_temperature;BME280_humidity;BME280_pressure;Samples;Min_cycle;Max_cycle;Signal;HPM_P1;HPM_P2
2021/10/23 00:00:52;;;;;;;11.03;7.37;;;;;;;11.17;50.15;99395.38;1639740;87;21012;-68
2021/10/23 00:03:20;;;;;;;12.10;7.92;;;;;;;11.19;49.84;99391.87;1664978;86;21094;-73
2021/10/23 00:05:47;;;;;;;14.95;7.35;;;;;;;11.21;49.54;99388.39;1645074;86;21025;-74
2021/10/23 00:08:14;;;;;;;15.90;10.15;;;;;;;11.23;49.43;99392.97;1639726;87;20974;-73
2021/10/23 00:10:41;;;;;;;13.85;7.75;;;;;;;11.25;49.10;99391.65;1668304;86;21196;-73
2021/10/23 00:13:07;;;;;;;10.93;6.42;;;;;;;11.28;48.41;99391.11;1618333;86;21086;-74
2021/10/23 00:15:33;;;;;;;13.05;6.00;;;;;;;11.31;48.00;99395.18;1677473;85;21088;-74
2021/10/23 00:18:00;;;;;;;7.97;5.67;;;;;;;11.33;47.46;99397.06;1682736;85;21012;-72
2021/10/23 00:20:27;;;;;;;11.90;6.87;;;;;;;11.35;46.90;99390.36;1678889;84;20982;-73
2021/10/23 00:22:53;;;;;;;9.93;5.55;;;;;;;11.37;46.74;99386.03;1640916;86;21762;-73
2021/10/23 00:25:21;;;;;;;11.68;6.03;;;;;;;11.38;46.67;99392.52;1644730;86;21107;-73
2021/10/23 00:27:47;;;;;;;8.58;5.70;;;;;;;11.41;46.70;99393.08;1608817;88;21020;-72
2021/10/23 00:30:16;;;;;;;10.65;5.53;;;;;;;11.42;46.61;99380.67;1639612;86;21044;-72
2021/10/23 00:32:54;;;;;;;8.85;5.53;;;;;;;11.42;46.48;99382.55;1694169;84;21056;-74
2021/10/23 00:35:21;;;;;;;9.63;5.45;;;;;;;11.42;46.49;99390.63;1674563;84;21953;-74
2021/10/23 00:37:47;;;;;;;9.95;6.08;;;;;;;11.42;46.36;99382.55;1672788;84;21032;-74
2021/10/23 00:40:13;;;;;;;8.35;5.53;;;;;;;11.41;45.91;99379.08;1695115;84;21001;-70
2021/10/23 00:42:40;;;;;;;9.80;6.85;;;;;;;11.41;45.88;99380.95;1696227;84;21573;-69
2021/10/23 00:45:08;;;;;;;11.08;5.80;;;;;;;11.38;45.46;99365.59;1674202;84;21131;-72
2021/10/23 00:47:36;;;;;;;6.92;5.15;;;;;;;11.36;45.29;99377.17;1695969;84;21231;-71
2021/10/23 00:50:04;;;;;;;11.25;5.40;;;;;;;11.36;45.21;99375.83;1680125;83;20917;-69
2021/10/23 00:52:30;;;;;;;8.90;5.65;;;;;;;11.34;45.15;99376.61;1711069;83;21035;-70
2021/10/23 00:54:58;;;;;;;7.30;5.78;;;;;;;11.32;44.84;99374.70;1690342;83;21087;-69
2021/10/23 00:57:24;;;;;;;8.40;5.45;;;;;;;11.32;44.75;99357.73;1670903;83;21019;-69
2021/10/23 00:59:50;;;;;;;10.00;4.95;;;;;;;11.32;44.79;99372.55;1688089;83;21411;-70
2021/10/23 01:02:17;;;;;;;7.95;5.05;;;;;;;11.32;44.68;99368.51;1664798;85;21011;-72
2021/10/23 01:04:44;;;;;;;6.65;4.75;;;;;;;11.29;44.42;99376.59;1684530;85;20975;-71
2021/10/23 01:07:10;;;;;;;7.75;4.97;;;;;;;11.27;44.56;99369.86;1684581;83;21059;-72
2021/10/23 01:09:39;;;;;;;5.97;4.05;;;;;;;11.24;44.40;99377.09;1694241;83;21035;-69
2021/10/23 01:12:09;;;;;;;6.75;4.42;;;;;;;11.23;44.50;99376.81;1694212;83;21375;-70
2021/10/23 01:14:35;;;;;;;7.60;4.33;;;;;;;11.20;44.49;99378.16;1684244;84;20988;-74
2021/10/23 01:17:02;;;;;;;11.65;4.30;;;;;;;11.19;44.54;99376.53;1684022;84;21052;-74
2021/10/23 01:19:31;;;;;;;10.93;4.15;;;;;;;11.17;44.41;99375.19;1707691;83;20956;-71
2021/10/23 01:21:57;;;;;;;7.25;4.60;;;;;;;11.15;44.53;99375.44;1664659;85;21046;-69
2021/10/23 01:24:24;;;;;;;4.17;3.65;;;;;;;11.13;44.54;99379.45;1665131;85;20979;-69
2021/10/23 01:26:50;;;;;;;7.12;4.80;;;;;;;11.11;44.54;99375.69;1684685;85;20932;-73
2021/10/23 01:29:18;;;;;;;9.40;4.37;;;;;;;11.09;44.64;99372.44;1693173;83;21024;-74
2021/10/23 01:31:45;;;;;;;5.55;4.35;;;;;;;11.07;44.74;99375.94;1697695;83;21816;-73
2021/10/23 01:34:21;;;;;;;9.25;4.33;;;;;;;11.04;44.81;99377.79;1684672;85;21012;-72
2021/10/23 01:36:55;;;;;;;9.70;4.67;;;;;;;11.02;44.83;99378.61;1705134;83;21148;-71
2021/10/23 01:39:22;;;;;;;7.25;4.47;;;;;;;10.99;44.86;99376.94;1666643;85;20914;-71
2021/10/23 01:41:48;;;;;;;10.53;5.37;;;;;;;10.98;44.90;99388.27;1692093;83;21537;-72
2021/10/23 01:44:16;;;;;;;7.25;5.17;;;;;;;10.97;44.92;99390.68;1692769;83;21012;-72
2021/10/23 01:46:43;;;;;;;6.28;4.90;;;;;;;10.94;44.94;99387.14;1667087;85;21547;-71
2021/10/23 01:49:09;;;;;;;12.03;4.97;;;;;;;10.92;45.09;99379.88;1643284;85;21385;-71
2021/10/23 01:51:37;;;;;;;8.15;4.90;;;;;;;10.89;45.21;99379.03;1653233;85;21049;-73
2021/10/23 01:54:06;;;;;;;9.98;5.42;;;;;;;10.85;45.15;99381.97;1684611;85;21592;-71
2021/10/23 01:56:36;;;;;;;8.05;5.15;;;;;;;10.84;45.21;99384.37;1684726;85;21020;-71
2021/10/23 01:59:02;;;;;;;8.28;4.70;;;;;;;10.81;45.28;99378.19;1712290;83;21052;-74
2021/10/23 02:01:29;;;;;;;7.17;4.72;;;;;;;10.79;45.36;99379.78;1692859;83;21107;-74
2021/10/23 02:03:55;;;;;;;8.38;4.65;;;;;;;10.75;45.50;99369.80;1709141;83;21015;-72
2021/10/23 02:06:22;;;;;;;6.20;4.25;;;;;;;10.72;45.60;99370.33;1664874;85;21024;-70
2021/10/23 02:08:48;;;;;;;9.30;5.10;;;;;;;10.69;45.62;99368.98;1655205;85;21059;-72
2021/10/23 02:11:15;;;;;;;7.33;4.42;;;;;;;10.68;45.65;99367.34;1670775;85;21560;-71
2021/10/23 02:13:41;;;;;;;7.58;5.08;;;;;;;10.65;45.72;99371.88;1670570;85;21215;-71
2021/10/23 02:16:08;;;;;;;5.80;4.12;;;;;;;10.65;45.80;99375.10;1639244;87;21020;-72
2021/10/23 02:18:35;;;;;;;6.55;4.12;;;;;;;10.63;45.87;99368.66;1650400;85;21094;-72
2021/10/23 02:21:02;;;;;;;10.85;5.37;;;;;;;10.60;45.82;99373.19;1669881;85;20996;-73
2021/10/23 02:23:29;;;;;;;7.78;4.58;;;;;;;10.59;45.72;99378.31;1711035;83;21505;-73
2021/10/23 02:25:55;;;;;;;5.17;4.22;;;;;;;10.58;45.83;99378.03;1684575;84;22091;-75
2021/10/23 02:28:21;;;;;;;6.15;4.60;;;;;;;10.56;45.91;99375.30;1664901;85;21510;-74
2021/10/23 02:30:47;;;;;;;7.28;4.42;;;;;;;10.52;45.93;99358.88;1650373;85;21068;-73
2021/10/23 02:33:14;;;;;;;10.82;4.90;;;;;;;10.50;46.03;99376.61;1641452;86;21076;-73
2021/10/23 02:35:41;;;;;;;8.63;5.08;;;;;;;10.48;46.10;99369.34;1666266;86;21079;-74
2021/10/23 02:38:07;;;;;;;6.55;4.65;;;;;;;10.48;46.19;99373.91;1665917;86;22094;-74
2021/10/23 02:40:34;;;;;;;8.03;4.50;;;;;;;10.46;46.29;99370.66;1665987;86;20991;-75
2021/10/23 02:43:00;;;;;;;8.08;4.72;;;;;;;10.44;46.46;99372.28;1664143;86;21079;-71
2021/10/23 02:45:27;;;;;;;7.83;5.03;;;;;;;10.44;46.62;99378.19;1641151;86;21075;-74
2021/10/23 02:47:54;;;;;;;6.58;5.22;;;;;;;10.42;46.79;99377.62;1640802;86;22265;-73
2021/10/23 02:50:21;;;;;;;9.35;4.40;;;;;;;10.38;47.02;99385.39;1665904;86;21165;-73
2021/10/23 02:52:47;;;;;;;9.13;5.22;;;;;;;10.37;47.18;99378.91;1665611;85;20971;-75
2021/10/23 02:55:14;;;;;;;10.53;4.90;;;;;;;10.33;47.40;99388.56;1660249;86;21039;-74
2021/10/23 02:57:40;;;;;;;8.83;5.67;;;;;;;10.32;47.58;99382.91;1666139;86;21067;-74
2021/10/23 03:00:08;;;;;;;9.75;5.65;;;;;;;10.28;47.75;99393.36;1663348;86;21528;-76
2021/10/23 03:02:35;;;;;;;6.03;4.45;;;;;;;10.24;48.09;99386.06;1639946;86;21544;-77
2021/10/23 03:05:03;;;;;;;7.70;4.30;;;;;;;10.21;48.35;99388.74;1631355;86;21063;-74
2021/10/23 03:07:30;;;;;;;11.40;5.85;;;;;;;10.19;48.48;99389.52;1651070;86;21000;-75
2021/10/23 03:09:58;;;;;;;11.68;5.80;;;;;;;10.18;48.72;99392.45;1639930;86;21039;-74
2021/10/23 03:12:27;;;;;;;10.58;5.60;;;;;;;10.12;49.05;99393.45;1662631;86;21062;-75
2021/10/23 03:14:56;;;;;;;11.55;4.80;;;;;;;10.08;49.33;99388.57;1666276;86;20979;-74
2021/10/23 03:17:22;;;;;;;8.45;5.92;;;;;;;10.04;49.60;99386.12;1665941;86;21560;-75
2021/10/23 03:19:49;;;;;;;12.78;6.83;;;;;;;10.01;49.86;99387.98;1637024;86;21642;-74
2021/10/23 03:22:16;;;;;;;8.83;6.00;;;;;;;9.98;50.02;99391.15;1641110;86;21863;-73
2021/10/23 03:24:42;;;;;;;9.20;5.20;;;;;;;9.96;50.05;99399.20;1666696;86;21024;-74
2021/10/23 03:27:09;;;;;;;13.13;6.45;;;;;;;9.93;50.43;99390.28;1643331;86;21927;-73
2021/10/23 03:29:36;;;;;;;10.80;5.85;;;;;;;9.89;50.52;99383.27;1666194;85;21555;-76
2021/10/23 03:32:03;;;;;;;11.03;6.67;;;;;;;9.87;50.67;99385.95;1639577;86;21608;-78
2021/10/23 03:34:31;;;;;;;10.28;6.28;;;;;;;9.84;50.71;99387.77;1659608;86;20995;-75
2021/10/23 03:36:57;;;;;;;11.10;7.03;;;;;;;9.82;50.75;99379.17;1640347;86;21126;-76
2021/10/23 03:39:24;;;;;;;7.47;5.97;;;;;;;9.82;50.70;99393.95;1640003;86;21103;-73
2021/10/23 03:41:50;;;;;;;8.75;5.85;;;;;;;9.80;50.67;99383.44;1641299;86;21081;-76
2021/10/23 03:44:18;;;;;;;6.97;5.20;;;;;;;9.79;50.70;99379.12;1663750;86;21031;-74
2021/10/23 03:46:45;;;;;;;10.00;5.45;;;;;;;9.79;50.65;99379.66;1663957;86;21028;-73
2021/10/23 03:49:11;;;;;;;8.15;5.67;;;;;;;9.77;50.74;99377.77;1662479;86;21024;-74
2021/10/23 03:51:38;;;;;;;12.82;5.67;;;;;;;9.75;50.86;99376.67;1646705;86;21075;-75
2021/10/23 03:54:04;;;;;;;10.68;5.70;;;;;;;9.72;50.89;99373.16;1659516;86;21030;-74
2021/10/23 03:56:32;;;;;;;10.35;5.45;;;;;;;9.72;50.88;99381.74;1619267;87;21028;-74
2021/10/23 03:58:58;;;;;;;7.45;5.60;;;;;;;9.71;50.89;99383.61;1611928;87;21150;-74
2021/10/23 04:01:25;;;;;;;12.28;6.20;;;;;;;9.70;50.93;99384.67;1644778;86;21054;-72
2021/10/23 04:03:51;;;;;;;8.98;5.53;;;;;;;9.68;50.91;99391.37;1657756;86;21241;-73
2021/10/23 04:06:17;;;;;;;14.20;5.95;;;;;;;9.66;51.04;99383.55;1625125;87;20956;-74
2021/10/23 04:08:45;;;;;;;10.08;6.72;;;;;;;9.64;51.02;99394.53;1636980;87;20999;-75
2021/10/23 04:11:12;;;;;;;12.40;5.55;;;;;;;9.63;50.98;99385.41;1639406;86;21021;-73
2021/10/23 04:13:40;;;;;;;12.28;5.85;;;;;;;9.60;51.07;99381.86;1652316;86;21035;-71
2021/10/23 04:16:06;;;;;;;11.93;5.78;;;;;;;9.57;51.00;99380.51;1662726;86;21168;-71
2021/10/23 04:18:34;;;;;;;17.82;5.95;;;;;;;9.58;50.95;99398.77;1639681;86;21564;-71
2021/10/23 04:21:02;;;;;;;8.98;5.60;;;;;;;9.57;50.95;99401.17;1648554;86;21541;-71
2021/10/23 04:23:28;;;;;;;10.35;5.55;;;;;;;9.56;50.91;99399.54;1636871;87;21083;-70
2021/10/23 04:25:55;;;;;;;9.03;5.03;;;;;;;9.54;50.92;99400.34;1644130;86;21066;-73
2021/10/23 04:28:22;;;;;;;9.10;5.22;;;;;;;9.53;50.92;99398.70;1640978;86;21071;-74
2021/10/23 04:30:48;;;;;;;8.75;4.90;;;;;;;9.52;50.85;99406.48;1616617;87;21018;-73
2021/10/23 04:33:14;;;;;;;8.65;5.40;;;;;;;9.51;50.78;99434.38;1640973;87;20979;-73
2021/10/23 04:35:40;;;;;;;10.50;6.10;;;;;;;9.50;50.77;99400.00;1644429;86;21054;-72
2021/10/23 04:38:07;;;;;;;8.75;5.40;;;;;;;9.50;50.72;99404.56;1672263;85;21055;-72
2021/10/23 04:40:33;;;;;;;8.35;5.10;;;;;;;9.50;50.63;99400.53;1711655;83;21108;-72
2021/10/23 04:43:00;;;;;;;7.20;4.25;;;;;;;9.49;50.55;99401.63;1715634;83;20940;-72
2021/10/23 04:45:26;;;;;;;11.33;5.37;;;;;;;9.47;50.54;99403.20;1715407;83;21055;-74
2021/10/23 04:47:52;;;;;;;9.83;4.90;;;;;;;9.47;50.72;99413.94;1682870;85;21142;-74
2021/10/23 04:50:19;;;;;;;6.22;4.58;;;;;;;9.47;50.60;99406.41;1683603;85;21583;-73
2021/10/23 04:52:45;;;;;;;8.78;5.12;;;;;;;9.47;50.56;99416.63;1715656;83;21419;-74
2021/10/23 04:55:11;;;;;;;9.13;5.33;;;;;;;9.46;50.61;99420.89;1685954;83;21052;-75
2021/10/23 04:57:39;;;;;;;7.75;5.03;;;;;;;9.46;50.67;99424.39;1715581;83;20956;-74
2021/10/23 05:00:08;;;;;;;8.33;4.20;;;;;;;9.46;50.67;99438.33;1640004;86;21062;-74
2021/10/23 05:02:34;;;;;;;8.65;4.62;;;;;;;9.45;50.71;99436.70;1659965;86;21107;-74
2021/10/23 05:05:00;;;;;;;8.63;5.05;;;;;;;9.45;50.69;99433.49;1657734;85;21131;-74
2021/10/23 05:07:26;;;;;;;8.05;5.72;;;;;;;9.45;50.70;99448.25;1643608;85;21010;-76
2021/10/23 05:09:52;;;;;;;11.00;4.83;;;;;;;9.45;50.61;99452.81;1658953;85;21503;-74
2021/10/23 05:12:19;;;;;;;14.20;4.85;;;;;;;9.46;50.66;99450.41;1647128;85;21543;-73
2021/10/23 05:14:47;;;;;;;10.78;5.55;;;;;;;9.46;50.63;99457.12;1670781;85;21519;-72
2021/10/23 05:17:13;;;;;;;6.90;4.15;;;;;;;9.45;50.62;99452.28;1670642;85;21100;-70
2021/10/23 05:19:42;;;;;;;7.45;4.47;;;;;;;9.46;50.61;99457.94;1646258;86;21015;-72
2021/10/23 05:22:08;;;;;;;10.38;5.65;;;;;;;9.47;50.65;99448.83;1668828;85;20971;-79
2021/10/23 05:24:34;;;;;;;8.15;5.08;;;;;;;9.46;50.62;99451.23;1648940;86;20993;-74
2021/10/23 05:27:01;;;;;;;13.55;5.28;;;;;;;9.48;50.54;99449.12;1648685;86;21102;-73
2021/10/23 05:29:27;;;;;;;7.55;4.20;;;;;;;9.49;50.48;99442.70;1653441;85;21999;-74
2021/10/23 05:31:54;;;;;;;7.67;4.70;;;;;;;9.51;50.49;99447.27;1671326;85;21117;-74
2021/10/23 05:34:20;;;;;;;6.97;4.17;;;;;;;9.53;50.45;99471.20;1683412;85;21055;-74
2021/10/23 05:36:46;;;;;;;9.25;4.80;;;;;;;9.54;50.43;99459.41;1712100;83;21164;-71
2021/10/23 05:39:13;;;;;;;13.43;4.80;;;;;;;9.55;50.35;99466.37;1690178;83;21010;-70
2021/10/23 05:41:39;;;;;;;8.35;5.83;;;;;;;9.56;50.29;99461.29;1692739;83;21064;-72
2021/10/23 05:44:06;;;;;;;6.55;4.40;;;;;;;9.57;50.26;99477.16;1715289;83;21020;-71
2021/10/23 05:46:33;;;;;;;6.80;4.35;;;;;;;9.58;50.29;99474.77;1692583;83;21031;-71
2021/10/23 05:48:59;;;;;;;15.55;5.28;;;;;;;9.60;50.23;99469.13;1708876;83;21007;-71
2021/10/23 05:51:26;;;;;;;8.60;5.17;;;;;;;9.61;50.24;99472.09;1694787;83;21059;-72
2021/10/23 05:53:52;;;;;;;11.33;4.17;;;;;;;9.60;50.21;99491.95;1692829;83;21052;-70
2021/10/23 05:56:19;;;;;;;6.92;4.33;;;;;;;9.62;50.02;99484.47;1715206;83;20999;-70
2021/10/23 05:58:45;;;;;;;5.85;3.77;;;;;;;9.63;49.98;99486.91;1690003;83;21532;-70
2021/10/23 06:01:13;;;;;;;7.55;4.30;;;;;;;9.68;50.03;99475.95;1686823;85;21520;-70
2021/10/23 06:03:40;;;;;;;12.33;6.22;;;;;;;9.70;50.04;99489.40;1686921;85;21570;-71
2021/10/23 06:06:09;;;;;;;7.80;4.37;;;;;;;9.73;49.91;99486.23;1686474;85;23270;-71
2021/10/23 06:08:37;;;;;;;5.87;4.25;;;;;;;9.76;49.75;99493.78;1639666;86;20952;-74
2021/10/23 06:11:03;;;;;;;10.03;4.47;;;;;;;9.78;49.84;99497.05;1644285;86;20999;-71
2021/10/23 06:13:32;;;;;;;7.83;4.25;;;;;;;9.82;49.77;99502.19;1639959;86;21051;-70
2021/10/23 06:15:58;;;;;;;9.18;4.83;;;;;;;9.84;49.66;99488.49;1639131;87;21119;-71
2021/10/23 06:18:26;;;;;;;10.72;5.30;;;;;;;9.87;49.64;99489.36;1640890;86;21127;-72
2021/10/23 06:20:54;;;;;;;11.85;5.22;;;;;;;9.90;49.71;99487.50;1655161;86;21522;-71
2021/10/23 06:23:22;;;;;;;8.33;5.42;;;;;;;9.91;49.64;99493.98;1655258;86;21546;-74
2021/10/23 06:25:50;;;;;;;8.70;4.80;;;;;;;9.95;49.54;99507.72;1655213;86;21067;-72
2021/10/23 06:28:18;;;;;;;9.65;5.03;;;;;;;9.95;49.59;99505.03;1655311;86;21590;-73
2021/10/23 06:30:46;;;;;;;8.38;5.17;;;;;;;9.98;49.60;99495.11;1659011;86;20999;-72
2021/10/23 06:33:14;;;;;;;10.78;4.75;;;;;;;10.01;49.56;99495.45;1663699;86;21024;-73
2021/10/23 06:35:40;;;;;;;7.28;4.50;;;;;;;10.06;49.45;99497.37;1655177;86;21580;-74
2021/10/23 06:38:06;;;;;;;12.37;4.42;;;;;;;10.08;49.44;99494.70;1637635;86;21041;-70
2021/10/23 06:40:34;;;;;;;7.87;4.70;;;;;;;10.12;49.27;99509.79;1655987;86;21003;-72
2021/10/23 06:43:00;;;;;;;6.53;4.37;;;;;;;10.14;49.16;99507.67;1655188;86;21089;-76
2021/10/23 06:45:27;;;;;;;9.78;4.28;;;;;;;10.15;49.12;99503.12;1655449;86;21050;-72
2021/10/23 06:47:54;;;;;;;14.63;8.30;;;;;;;10.17;49.08;99540.78;1655127;86;21064;-72
2021/10/23 06:50:20;;;;;;;6.80;3.87;;;;;;;10.18;48.91;99523.61;1649347;86;21027;-71
2021/10/23 06:52:47;;;;;;;7.90;4.75;;;;;;;10.20;48.94;99520.67;1641297;86;21119;-73
2021/10/23 06:55:13;;;;;;;9.28;4.45;;;;;;;10.20;48.86;99526.86;1607104;88;21527;-70
2021/10/23 06:57:39;;;;;;;8.98;3.85;;;;;;;10.21;49.02;99518.27;1700332;83;20996;-70
2021/10/23 07:00:07;;;;;;;8.35;4.55;;;;;;;10.25;49.11;99522.08;1641012;85;21071;-70
2021/10/23 07:02:39;;;;;;;7.17;4.45;;;;;;;10.26;49.07;99516.46;1671952;85;21271;-70
2021/10/23 07:05:12;;;;;;;;;;;;;;;10.31;48.94;99529.14;1679210;85;21107;-71
2021/10/23 07:07:39;;;;;;;7.97;4.62;;;;;;;10.34;48.83;99511.16;1699511;83;27796;-74
2021/10/23 07:10:06;;;;;;;9.80;4.30;;;;;;;10.35;48.77;99520.32;1686263;85;21067;-73
2021/10/23 07:12:34;;;;;;;11.43;4.25;;;;;;;10.35;48.80;99576.77;1656116;86;21035;-72
2021/10/23 07:15:01;;;;;;;10.25;4.30;;;;;;;10.37;48.82;99516.02;1664677;85;21111;-72
2021/10/23 07:17:29;;;;;;;12.03;4.83;;;;;;;10.38;48.86;99548.03;1654991;86;21616;-73
2021/10/23 07:19:56;;;;;;;9.88;4.87;;;;;;;10.40;48.83;99522.25;1694374;83;21285;-72
2021/10/23 07:22:23;;;;;;;15.70;4.78;;;;;;;10.41;48.89;99536.77;1683684;85;21059;-72
2021/10/23 07:24:55;;;;;;;8.95;5.05;;;;;;;10.41;48.94;99548.86;1715440;83;20991;-73
2021/10/23 07:27:23;;;;;;;15.03;5.03;;;;;;;10.42;48.98;99545.12;1632619;86;20924;-73
2021/10/23 07:29:50;;;;;;;7.50;4.05;;;;;;;10.45;49.07;99542.47;1685550;83;21056;-74
2021/10/23 07:32:17;;;;;;;8.45;3.80;;;;;;;10.49;49.13;99545.75;1710618;83;21030;-73
2021/10/23 07:34:43;;;;;;;11.60;4.67;;;;;;;10.53;49.12;99554.11;1644007;85;21066;-71
2021/10/23 07:37:09;;;;;;;8.58;3.95;;;;;;;10.57;48.91;99535.59;1671847;85;20947;-71
2021/10/23 07:39:35;;;;;;;10.38;4.42;;;;;;;10.57;48.91;99539.62;1667239;83;20992;-72
2021/10/23 07:42:03;;;;;;;10.00;4.58;;;;;;;10.56;48.99;99563.53;1713784;83;21024;-73
2021/10/23 07:44:29;;;;;;;9.40;4.67;;;;;;;10.58;48.96;99557.39;1705078;83;21398;-73
2021/10/23 07:46:56;;;;;;;7.62;4.83;;;;;;;10.55;48.98;99549.84;1672063;84;21056;-73
2021/10/23 07:49:22;;;;;;;7.97;3.40;;;;;;;10.55;49.04;99549.84;1690138;83;21099;-71
2021/10/23 07:51:49;;;;;;;7.80;4.50;;;;;;;10.55;49.16;99582.89;1690292;83;21035;-71
2021/10/23 07:54:15;;;;;;;10.45;4.75;;;;;;;10.57;49.25;99555.75;1688697;83;21070;-73
2021/10/23 07:56:43;;;;;;;12.33;4.83;;;;;;;10.58;49.20;99603.11;1710782;83;21135;-72
2021/10/23 07:59:10;;;;;;;12.25;4.25;;;;;;;10.58;49.25;99599.89;1710890;83;21091;-73
2021/10/23 08:01:36;;;;;;;8.63;4.15;;;;;;;10.61;49.31;99589.95;1636696;86;21027;-72
2021/10/23 08:04:05;;;;;;;7.92;4.53;;;;;;;10.66;49.27;99570.38;1643505;86;21116;-73
2021/10/23 08:06:31;;;;;;;9.95;4.17;;;;;;;10.73;49.27;99598.72;1671978;85;21090;-74
2021/10/23 08:08:57;;;;;;;8.60;5.17;;;;;;;10.81;49.08;99575.38;1649081;86;21060;-73
2021/10/23 08:11:25;;;;;;;9.23;4.95;;;;;;;10.89;48.98;99572.22;1670358;85;20946;-72
2021/10/23 08:13:52;;;;;;;9.43;3.98;;;;;;;10.99;48.90;99558.58;1643314;86;21312;-71
2021/10/23 08:16:20;;;;;;;14.63;4.20;;;;;;;11.10;48.82;99558.96;1671559;85;21003;-81
2021/10/23 08:18:46;;;;;;;7.10;4.50;;;;;;;11.21;48.73;99560.14;1670305;85;21009;-76
2021/10/23 08:21:12;;;;;;;4.60;3.10;;;;;;;11.33;47.97;99607.89;1636296;86;21086;-73
2021/10/23 08:23:38;;;;;;;8.18;4.12;;;;;;;11.38;47.77;99608.45;1623214;87;20950;-74
2021/10/23 08:26:05;;;;;;;6.95;3.27;;;;;;;11.37;47.62;99618.41;1643109;87;20951;-73
2021/10/23 08:28:33;;;;;;;11.88;2.87;;;;;;;11.38;47.37;99604.42;1643168;87;21034;-73
2021/10/23 08:31:00;;;;;;;5.00;3.37;;;;;;;11.42;46.97;99602.83;1645748;86;21539;-74
2021/10/23 08:33:26;;;;;;;8.88;3.90;;;;;;;11.47;46.56;99614.18;1623361;87;21627;-73
2021/10/23 08:35:54;;;;;;;7.92;4.15;;;;;;;11.47;46.78;99618.22;1687725;84;20972;-73
2021/10/23 08:38:22;;;;;;;16.20;4.78;;;;;;;11.49;46.71;99615.56;1701756;83;21066;-71
2021/10/23 08:40:49;;;;;;;9.15;4.25;;;;;;;11.47;46.50;99660.78;1679533;85;21548;-72
2021/10/23 08:43:15;;;;;;;10.53;3.77;;;;;;;11.47;46.17;99616.34;1660778;85;21076;-73
2021/10/23 08:45:42;;;;;;;6.70;3.85;;;;;;;11.42;46.26;99637.02;1662626;85;21564;-73
2021/10/23 08:48:10;;;;;;;10.45;4.10;;;;;;;11.36;46.36;99624.08;1669727;85;21714;-73
2021/10/23 08:50:36;;;;;;;9.08;4.60;;;;;;;11.29;46.44;99636.92;1706960;84;21016;-73
2021/10/23 08:53:03;;;;;;;5.60;3.80;;;;;;;11.19;46.85;99626.06;1692455;83;21004;-82
2021/10/23 08:55:30;;;;;;;10.45;4.20;;;;;;;11.14;47.16;99638.13;1665167;85;21480;-73
2021/10/23 08:57:58;;;;;;;6.15;4.28;;;;;;;11.11;47.33;99656.14;1666342;85;21118;-72
2021/10/23 09:00:25;;;;;;;8.88;4.47;;;;;;;11.06;47.34;99636.72;1661125;86;21369;-73
2021/10/23 09:02:53;;;;;;;9.10;3.92;;;;;;;11.06;47.52;99623.27;1663054;85;21000;-76
2021/10/23 09:05:21;;;;;;;9.00;4.45;;;;;;;11.12;47.53;99628.98;1713958;83;21008;-74
2021/10/23 09:07:49;;;;;;;9.13;3.72;;;;;;;11.20;47.47;99639.27;1679747;85;21632;-75
2021/10/23 09:10:29;;;;;;;10.08;5.17;;;;;;;11.28;46.84;99642.02;1696183;83;20952;-74
2021/10/23 09:13:05;;;;;;;7.28;5.12;;;;;;;11.29;46.66;99653.08;1694016;83;21015;-74
2021/10/23 09:15:38;;;;;;;10.15;6.37;;;;;;;11.22;46.74;99686.92;1702771;83;20948;-75
2021/10/23 09:18:05;;;;;;;10.32;6.70;;;;;;;11.11;46.88;99665.56;1707175;83;21096;-72
2021/10/23 09:20:41;;;;;;;13.58;5.30;;;;;;;11.03;47.27;99678.92;1689122;83;21516;-74
2021/10/23 09:23:16;;;;;;;6.20;5.17;;;;;;;11.02;47.40;99651.75;1696367;83;22104;-75
2021/10/23 09:25:43;;;;;;;10.88;4.92;;;;;;;11.06;47.33;99655.56;1713220;83;20991;-74
2021/10/23 09:28:16;;;;;;;7.22;4.50;;;;;;;11.10;47.15;99660.70;1700979;83;21532;-72
2021/10/23 09:30:47;;;;;;;7.15;4.95;;;;;;;11.11;47.09;99658.83;1682518;84;21498;-73
2021/10/23 09:33:22;;;;;;;8.25;4.92;;;;;;;11.12;46.92;99666.66;1714360;83;21013;-72
2021/10/23 09:35:50;;;;;;;10.65;5.12;;;;;;;11.16;47.09;99692.00;1712909;83;21085;-80
2021/10/23 09:38:22;;;;;;;7.83;4.50;;;;;;;11.20;47.09;99648.70;1706253;83;21140;-73
2021/10/23 09:40:51;;;;;;;11.53;5.15;;;;;;;11.24;46.86;99649.81;1713079;83;21501;-72
2021/10/23 09:43:29;;;;;;;9.95;4.45;;;;;;;11.32;46.79;99645.30;1692686;83;21111;-72
2021/10/23 09:46:01;;;;;;;9.15;4.30;;;;;;;11.33;46.53;99638.03;1690465;83;21099;-72
2021/10/23 09:48:52;;;;;;;9.83;4.05;;;;;;;11.37;46.55;99654.77;1700119;83;21595;-74
2021/10/23 09:51:23;;;;;;;7.87;4.17;;;;;;;11.44;46.45;99657.79;1658231;85;21105;-71
2021/10/23 09:54:06;;;;;;;11.03;4.92;;;;;;;11.53;45.88;99646.83;1684597;85;20996;-73
2021/10/23 09:56:35;;;;;;;4.55;3.15;;;;;;;11.57;45.82;99650.63;1664434;85;21055;-75
2021/10/23 09:59:09;;;;;;;8.95;4.03;;;;;;;11.60;45.43;99677.88;1695985;83;21024;-72
2021/10/23 10:01:41;;;;;;;8.18;4.20;;;;;;;11.56;45.41;99670.57;1692954;83;21026;-75
2021/10/23 10:04:10;;;;;;;5.53;3.40;;;;;;;11.49;45.48;99668.08;1711606;83;21535;-79
2021/10/23 10:06:45;;;;;;;11.78;3.87;;;;;;;11.45;45.37;99665.63;1706610;83;20933;-74
2021/10/23 10:09:15;;;;;;;8.10;4.10;;;;;;;11.39;45.66;99701.64;1705029;83;20984;-72
2021/10/23 10:11:43;;;;;;;7.60;3.50;;;;;;;11.38;45.81;99667.70;1665490;85;21011;-75
2021/10/23 10:14:11;;;;;;;9.78;3.65;;;;;;;11.37;45.80;99669.58;1688170;84;20991;-73
2021/10/23 10:16:42;;;;;;;6.95;3.85;;;;;;;11.37;45.90;99676.31;1684270;85;21517;-78
2021/10/23 10:19:10;;;;;;;6.00;4.03;;;;;;;11.36;45.96;99695.44;1633092;87;21035;-73
2021/10/23 10:21:37;;;;;;;7.08;4.35;;;;;;;11.37;45.97;99676.84;1646624;85;21068;-71
2021/10/23 10:24:24;;;;;;;9.30;4.10;;;;;;;11.35;46.11;99668.22;1668113;85;21103;-74
2021/10/23 10:27:17;;;;;;;7.83;4.00;;;;;;;11.37;46.11;99669.58;1635488;87;21122;-76
2021/10/23 10:29:57;;;;;;;6.05;3.83;;;;;;;11.38;45.84;99678.47;1631964;85;21063;-75
2021/10/23 10:32:35;;;;;;;8.13;3.92;;;;;;;11.36;45.49;99663.94;1654256;85;21536;-74
2021/10/23 10:43:05;;;;;;;;;;;;;;;11.46;45.57;99680.72;1638408;87;20991;-73
2021/10/23 10:45:46;;;;;;;9.78;4.70;;;;;;;11.50;45.64;99716.84;1632405;87;20205;-70
2021/10/23 10:48:36;;;;;;;10.25;4.15;;;;;;;11.54;45.67;99707.71;1643512;86;20976;-71
2021/10/23 10:51:12;;;;;;;5.78;4.40;;;;;;;11.55;45.65;99717.42;1630187;87;21099;-71
2021/10/23 10:53:51;;;;;;;7.58;4.22;;;;;;;11.54;45.82;99695.59;1642669;86;21298;-73
2021/10/23 10:56:19;;;;;;;5.97;3.95;;;;;;;11.54;45.92;99715.27;1637013;87;22184;-80
2021/10/23 10:58:53;;;;;;;6.62;4.08;;;;;;;11.51;45.62;99717.66;1641770;87;20986;-82
2021/10/23 11:01:29;;;;;;;7.70;4.30;;;;;;;11.52;45.51;99707.14;1621176;87;21539;-83
2021/10/23 11:04:06;;;;;;;9.48;3.65;;;;;;;11.51;45.11;99736.52;1598523;87;21595;-77
2021/10/23 11:06:45;;;;;;;6.75;4.00;;;;;;;11.48;44.54;99716.27;1663953;85;21123;-77
2021/10/23 11:09:19;;;;;;;5.35;3.92;;;;;;;11.43;43.81;99697.91;1669603;84;21080;-79
2021/10/23 11:11:57;;;;;;;10.23;4.30;;;;;;;11.42;44.12;99704.35;1640711;86;21559;-81
2021/10/23 11:14:31;;;;;;;6.87;3.60;;;;;;;11.36;43.51;99747.94;1686955;84;21501;-78
2021/10/23 11:17:12;;;;;;;8.08;4.00;;;;;;;11.40;43.44;99734.25;1682363;84;20963;-80
2021/10/23 11:19:54;;;;;;;6.75;2.92;;;;;;;11.38;43.05;99742.57;1662324;85;21077;-84
2021/10/23 11:22:27;;;;;;;5.50;3.08;;;;;;;11.33;42.98;99725.55;1682388;85;21063;-82
2021/10/23 11:25:05;;;;;;;3.45;2.90;;;;;;;11.29;43.10;99723.90;1688753;84;21211;-83
2021/10/23 11:27:44;;;;;;;6.12;3.33;;;;;;;11.27;43.33;99740.83;1661498;86;21536;-84
2021/10/23 11:30:31;;;;;;;6.80;3.52;;;;;;;11.24;43.62;99718.46;1695584;83;21113;-76
2021/10/23 11:33:05;;;;;;;4.55;3.45;;;;;;;11.29;43.83;99737.36;1660962;85;21201;-74
2021/10/23 11:35:46;;;;;;;5.95;3.92;;;;;;;11.38;43.89;99730.45;1680828;83;21566;-75
2021/10/23 11:38:23;;;;;;;4.40;3.05;;;;;;;11.48;43.62;99713.58;1688404;84;21571;-78
2021/10/23 11:40:58;;;;;;;4.80;3.22;;;;;;;11.60;43.28;99725.55;1647086;85;21130;-82
2021/10/23 11:43:30;;;;;;;5.42;3.50;;;;;;;11.70;42.76;99718.35;1713092;83;20995;-82
2021/10/23 11:45:57;;;;;;;4.35;3.40;;;;;;;11.85;41.68;99746.00;1659519;85;21120;-78
2021/10/23 11:48:25;;;;;;;7.10;3.65;;;;;;;11.90;40.52;99729.88;1693827;83;21011;-79